Time;durP1;ratioP1;P1;durP2;ratioP2;P2;SDS_P1;SDS_P2;PMS_P1;PMS_P2;Temp;Humidity;BMP_temperature;BMP_pressure;BME280_temperature;BME280_humidity;BME280_pressure;Samples;Min_cycle;Max_cycle;Signal;HPM_P1;HPM_P2
2022/05/15 00:01:08;;;;;;;;;;;;;;;;;;5056126;28;19916;-51
2022/05/15 00:03:35;;;;;;;;;;;;;;;;;;5055997;28;19982;-54
2022/05/15 00:06:01;;;;;;;;;;;;;;;;;;5055516;28;20241;-58
2022/05/15 00:08:28;;;;;;;;;;;;;;;;;;5056404;28;19927;-58
2022/05/15 00:10:55;;;;;;;;;;;;;;;;;;5055769;28;19931;-56
2022/05/15 00:13:21;;;;;;;;;;;;;;;;;;5055929;28;19909;-57
2022/05/15 00:15:49;;;;;;;;;;;;;;;;;;5055663;28;19952;-48
2022/05/15 00:18:15;;;;;;;;;;;;;;;;;;5055784;28;20399;-58
2022/05/15 00:20:42;;;;;;;;;;;;;;;;;;5055536;28;20363;-55
2022/05/15 00:23:08;;;;;;;;;;;;;;;;;;5056300;28;19917;-58
2022/05/15 00:25:35;;;;;;;;;;;;;;;;;;5055110;28;19909;-57
2022/05/15 00:28:01;;;;;;;;;;;;;;;;;;5055647;28;19909;-59
2022/05/15 00:30:28;;;;;;;;;;;;;;;;;;5055591;28;19909;-54
2022/05/15 00:32:54;;;;;;;;;;;;;;;;;;5055700;28;19969;-54
2022/05/15 00:35:21;;;;;;;;;;;;;;;;;;5055269;28;19916;-51
2022/05/15 00:37:47;;;;;;;;;;;;;;;;;;5055406;28;19908;-53
2022/05/15 00:40:14;;;;;;;;;;;;;;;;;;5055170;28;19921;-58
2022/05/15 00:42:40;;;;;;;;;;;;;;;;;;5055231;28;19978;-50
2022/05/15 00:45:06;;;;;;;;;;;;;;;;;;5055222;28;19995;-58
2022/05/15 00:47:33;;;;;;;;;;;;;;;;;;5055486;28;19909;-60
2022/05/15 00:50:00;;;;;;;;;;;;;;;;;;5054901;28;19995;-51
2022/05/15 00:52:26;;;;;;;;;;;;;;;;;;5054917;28;19924;-52
2022/05/15 00:54:53;;;;;;;;;;;;;;;;;;5055434;28;19909;-58
2022/05/15 00:57:19;;;;;;;;;;;;;;;;;;5053908;28;20325;-59
2022/05/15 00:59:46;;;;;;;;;;;;;;;;;;5054725;28;19913;-58
2022/05/15 01:02:12;;;;;;;;;;;;;;;;;;5054729;28;19942;-56
2022/05/15 01:04:39;;;;;;;;;;;;;;;;;;5054449;28;19912;-60
2022/05/15 01:07:05;;;;;;;;;;;;;;;;;;5054479;28;20003;-59
2022/05/15 01:09:32;;;;;;;;;;;;;;;;;;5055006;28;19915;-59
2022/05/15 01:12:00;;;;;;;;;;;;;;;;;;5055610;28;19958;-59
2022/05/15 01:14:26;;;;;;;;;;;;;;;;;;5074705;28;20422;-50
2022/05/15 01:16:53;;;;;;;;;;;;;;;;;;5074745;28;19912;-59
2022/05/15 01:19:19;;;;;;;;;;;;;;;;;;5074639;28;19909;-47
2022/05/15 01:21:46;;;;;;;;;;;;;;;;;;5073892;28;19943;-46
2022/05/15 01:24:12;;;;;;;;;;;;;;;;;;5074290;28;19934;-54
2022/05/15 01:26:39;;;;;;;;;;;;;;;;;;5074449;28;19909;-53
2022/05/15 01:29:05;;;;;;;;;;;;;;;;;;5074011;28;19999;-51
2022/05/15 01:31:32;;;;;;;;;;;;;;;;;;5073850;28;20359;-50
2022/05/15 01:33:59;;;;;;;;;;;;;;;;;;5074222;28;20267;-50
2022/05/15 01:36:26;;;;;;;;;;;;;;;;;;5074282;28;19944;-46
2022/05/15 01:38:52;;;;;;;;;;;;;;;;;;5073867;28;19912;-45
2022/05/15 01:41:18;;;;;;;;;;;;;;;;;;5074209;28;19908;-47
2022/05/15 01:43:47;;;;;;;;;;;;;;;;;;5073931;28;19923;-50
2022/05/15 01:46:13;;;;;;;;;;;;;;;;;;5073728;28;19908;-51
2022/05/15 01:48:39;;;;;;;;;;;;;;;;;;5074317;28;19912;-46
2022/05/15 01:51:06;;;;;;;;;;;;;;;;;;5074097;28;19908;-48
2022/05/15 01:53:32;;;;;;;;;;;;;;;;;;5073938;28;19909;-54
2022/05/15 01:55:59;;;;;;;;;;;;;;;;;;5073744;28;20390;-47
2022/05/15 01:58:25;;;;;;;;;;;;;;;;;;5073674;28;20368;-52
2022/05/15 02:00:52;;;;;;;;;;;;;;;;;;5073906;28;19913;-48
2022/05/15 02:03:18;;;;;;;;;;;;;;;;;;5073723;28;19916;-55
2022/05/15 02:05:45;;;;;;;;;;;;;;;;;;5073478;28;19917;-46
2022/05/15 02:08:11;;;;;;;;;;;;;;;;;;5072911;28;19926;-53
2022/05/15 02:10:38;;;;;;;;;;;;;;;;;;5073464;28;19940;-56
2022/05/15 02:13:04;;;;;;;;;;;;;;;;;;5073596;28;20326;-45
2022/05/15 02:15:31;;;;;;;;;;;;;;;;;;5073885;28;20353;-50
2022/05/15 02:17:57;;;;;;;;;;;;;;;;;;5073514;28;19917;-46
2022/05/15 02:20:24;;;;;;;;;;;;;;;;;;5073455;28;20375;-52
2022/05/15 02:22:51;;;;;;;;;;;;;;;;;;5072915;28;19920;-55
2022/05/15 02:25:17;;;;;;;;;;;;;;;;;;5072433;28;20055;-52
2022/05/15 02:27:45;;;;;;;;;;;;;;;;;;5073351;28;20303;-53
2022/05/15 02:30:12;;;;;;;;;;;;;;;;;;5073029;28;19957;-50
2022/05/15 02:32:38;;;;;;;;;;;;;;;;;;5072937;28;19984;-49
2022/05/15 02:35:05;;;;;;;;;;;;;;;;;;5072918;28;19908;-52
2022/05/15 02:37:31;;;;;;;;;;;;;;;;;;5072912;28;19954;-60
2022/05/15 02:39:58;;;;;;;;;;;;;;;;;;5073532;28;19928;-60
2022/05/15 02:42:26;;;;;;;;;;;;;;;;;;5072815;28;19912;-48
2022/05/15 02:44:52;;;;;;;;;;;;;;;;;;5073129;28;19912;-56
2022/05/15 02:47:19;;;;;;;;;;;;;;;;;;5073035;28;19904;-55
2022/05/15 02:52:29;;;;;;;;;;;;;;;;;;5073032;28;19951;-53
2022/05/15 02:54:56;;;;;;;;;;;;;;;;;;5071952;28;20097;-47
2022/05/15 02:57:22;;;;;;;;;;;;;;;;;;5070838;28;19988;-46
2022/05/15 02:59:49;;;;;;;;;;;;;;;;;;5073048;28;19905;-47
2022/05/15 03:02:15;;;;;;;;;;;;;;;;;;5072682;28;19916;-57
2022/05/15 03:04:42;;;;;;;;;;;;;;;;;;5072678;28;19961;-55
2022/05/15 03:07:08;;;;;;;;;;;;;;;;;;5072564;28;20015;-54
2022/05/15 03:09:35;;;;;;;;;;;;;;;;;;5072307;28;19908;-58
2022/05/15 03:12:01;;;;;;;;;;;;;;;;;;5072256;28;19913;-52
2022/05/15 03:14:28;;;;;;;;;;;;;;;;;;5072244;28;20244;-53
2022/05/15 03:16:54;;;;;;;;;;;;;;;;;;5072497;28;19916;-54
2022/05/15 03:19:21;;;;;;;;;;;;;;;;;;5071993;28;19908;-54
2022/05/15 03:21:47;;;;;;;;;;;;;;;;;;5072078;28;20359;-58
2022/05/15 03:24:14;;;;;;;;;;;;;;;;;;5071771;28;20287;-57
2022/05/15 03:26:40;;;;;;;;;;;;;;;;;;5072008;28;19916;-48
2022/05/15 03:29:07;;;;;;;;;;;;;;;;;;5075495;28;19938;-52
2022/05/15 03:31:36;;;;;;;;;;;;;;;;;;5079155;28;19912;-53
2022/05/15 03:34:02;;;;;;;;;;;;;;;;;;5078606;28;20204;-50
2022/05/15 03:36:29;;;;;;;;;;;;;;;;;;5078902;28;19908;-54
2022/05/15 03:38:55;;;;;;;;;;;;;;;;;;5078877;28;19908;-52
2022/05/15 03:41:22;;;;;;;;;;;;;;;;;;5078764;28;19983;-52
2022/05/15 03:43:48;;;;;;;;;;;;;;;;;;5078862;28;19962;-61
2022/05/15 03:46:15;;;;;;;;;;;;;;;;;;5077848;28;19991;-54
2022/05/15 03:48:41;;;;;;;;;;;;;;;;;;5079000;28;19952;-59
2022/05/15 03:51:08;;;;;;;;;;;;;;;;;;5079311;28;19908;-56
2022/05/15 03:53:34;;;;;;;;;;;;;;;;;;5079022;28;19913;-52
2022/05/15 03:56:00;;;;;;;;;;;;;;;;;;5078391;28;19908;-54
2022/05/15 03:58:27;;;;;;;;;;;;;;;;;;5078578;28;20374;-56
2022/05/15 04:00:53;;;;;;;;;;;;;;;;;;5078309;28;20259;-56
2022/05/15 04:03:20;;;;;;;;;;;;;;;;;;5077952;28;19916;-48
2022/05/15 04:05:46;;;;;;;;;;;;;;;;;;5078562;28;20000;-50
2022/05/15 04:08:13;;;;;;;;;;;;;;;;;;5078138;28;19979;-50
2022/05/15 04:10:39;;;;;;;;;;;;;;;;;;5078611;28;20347;-55
2022/05/15 04:13:06;;;;;;;;;;;;;;;;;;5078925;28;20381;-52
2022/05/15 04:15:36;;;;;;;;;;;;;;;;;;5077406;28;20196;-45
2022/05/15 04:18:02;;;;;;;;;;;;;;;;;;5078176;28;19908;-52
2022/05/15 04:20:29;;;;;;;;;;;;;;;;;;5078421;28;19936;-53
2022/05/15 04:22:56;;;;;;;;;;;;;;;;;;5078615;28;20255;-51
2022/05/15 04:25:22;;;;;;;;;;;;;;;;;;5078695;28;19962;-47
2022/05/15 04:27:49;;;;;;;;;;;;;;;;;;5078438;28;20007;-50
2022/05/15 04:30:15;;;;;;;;;;;;;;;;;;5078170;28;20325;-56
2022/05/15 04:32:42;;;;;;;;;;;;;;;;;;5077164;28;19938;-46
2022/05/15 04:35:08;;;;;;;;;;;;;;;;;;5078161;28;19916;-55
2022/05/15 04:37:35;;;;;;;;;;;;;;;;;;5078479;28;20286;-54
2022/05/15 04:40:01;;;;;;;;;;;;;;;;;;5076483;28;19908;-45
2022/05/15 04:42:28;;;;;;;;;;;;;;;;;;5074696;28;19920;-55
2022/05/15 04:44:54;;;;;;;;;;;;;;;;;;5075219;28;20005;-51
2022/05/15 04:47:21;;;;;;;;;;;;;;;;;;5075289;28;19951;-52
2022/05/15 04:49:49;;;;;;;;;;;;;;;;;;5075179;28;19909;-56
2022/05/15 04:52:16;;;;;;;;;;;;;;;;;;5074969;28;19913;-47
2022/05/15 04:54:42;;;;;;;;;;;;;;;;;;5073536;28;19954;-54
2022/05/15 04:57:09;;;;;;;;;;;;;;;;;;5075279;28;19908;-52
2022/05/15 04:59:35;;;;;;;;;;;;;;;;;;5074953;28;19908;-58
2022/05/15 05:02:03;;;;;;;;;;;;;;;;;;5074533;28;19909;-55
2022/05/15 05:04:29;;;;;;;;;;;;;;;;;;5072904;28;19950;-55
2022/05/15 05:06:56;;;;;;;;;;;;;;;;;;5075159;28;19927;-48
2022/05/15 05:09:22;;;;;;;;;;;;;;;;;;5074830;28;19915;-56
2022/05/15 05:11:49;;;;;;;;;;;;;;;;;;5074718;28;19909;-44
2022/05/15 05:14:15;;;;;;;;;;;;;;;;;;5074387;28;19916;-52
2022/05/15 05:16:42;;;;;;;;;;;;;;;;;;5074662;28;19987;-49
2022/05/15 05:19:08;;;;;;;;;;;;;;;;;;5074366;28;19909;-47
2022/05/15 05:21:35;;;;;;;;;;;;;;;;;;5074573;28;19956;-49
2022/05/15 05:24:01;;;;;;;;;;;;;;;;;;5073936;28;20278;-55
2022/05/15 05:26:28;;;;;;;;;;;;;;;;;;5073771;28;19912;-50
2022/05/15 05:28:54;;;;;;;;;;;;;;;;;;5074025;28;20344;-49
2022/05/15 05:31:20;;;;;;;;;;;;;;;;;;5074258;28;19908;-53
2022/05/15 05:33:47;;;;;;;;;;;;;;;;;;5073832;28;20003;-51
2022/05/15 05:36:13;;;;;;;;;;;;;;;;;;5073697;28;20363;-53
2022/05/15 05:38:40;;;;;;;;;;;;;;;;;;5074609;28;19908;-52
2022/05/15 05:41:06;;;;;;;;;;;;;;;;;;5074243;28;20003;-47
2022/05/15 05:43:33;;;;;;;;;;;;;;;;;;5073538;28;20360;-51
2022/05/15 05:45:59;;;;;;;;;;;;;;;;;;5072106;28;20274;-48
2022/05/15 05:48:26;;;;;;;;;;;;;;;;;;5073937;28;20313;-47
2022/05/15 05:50:52;;;;;;;;;;;;;;;;;;5073966;28;19927;-41
2022/05/15 05:53:19;;;;;;;;;;;;;;;;;;5073634;28;20008;-48
2022/05/15 05:55:45;;;;;;;;;;;;;;;;;;5073983;28;19909;-51
2022/05/15 05:58:12;;;;;;;;;;;;;;;;;;5073086;28;19917;-43
2022/05/15 06:00:38;;;;;;;;;;;;;;;;;;5074262;28;19909;-48
2022/05/15 06:05:50;;;;;;;;;;;;;;;;;;5073515;28;19915;-58
2022/05/15 06:08:17;;;;;;;;;;;;;;;;;;5073443;28;19921;-48
2022/05/15 06:10:43;;;;;;;;;;;;;;;;;;5073394;28;19912;-53
2022/05/15 06:13:10;;;;;;;;;;;;;;;;;;5073991;28;19909;-52
2022/05/15 06:15:36;;;;;;;;;;;;;;;;;;5073716;28;19993;-50
2022/05/15 06:18:03;;;;;;;;;;;;;;;;;;5073264;28;19915;-51
2022/05/15 06:20:29;;;;;;;;;;;;;;;;;;5073502;28;19958;-56
2022/05/15 06:22:56;;;;;;;;;;;;;;;;;;5073235;28;19923;-54
2022/05/15 06:25:22;;;;;;;;;;;;;;;;;;5072977;28;19914;-55
2022/05/15 06:27:49;;;;;;;;;;;;;;;;;;5065786;28;20435;-54
2022/05/15 06:30:15;;;;;;;;;;;;;;;;;;5051289;28;20015;-56
2022/05/15 06:32:42;;;;;;;;;;;;;;;;;;5048982;28;19954;-56
2022/05/15 06:35:08;;;;;;;;;;;;;;;;;;5051534;28;19991;-55
2022/05/15 06:37:35;;;;;;;;;;;;;;;;;;5050432;28;20031;-44
2022/05/15 06:40:01;;;;;;;;;;;;;;;;;;5050337;28;19909;-42
2022/05/15 06:42:29;;;;;;;;;;;;;;;;;;5047941;28;19920;-58
2022/05/15 06:44:56;;;;;;;;;;;;;;;;;;5050081;28;20328;-56
2022/05/15 06:47:24;;;;;;;;;;;;;;;;;;5050606;28;19932;-46
2022/05/15 06:49:51;;;;;;;;;;;;;;;;;;5049821;28;20324;-46
2022/05/15 06:52:17;;;;;;;;;;;;;;;;;;5046935;28;19920;-44
2022/05/15 06:54:44;;;;;;;;;;;;;;;;;;5050235;28;20004;-48
2022/05/15 06:57:29;;;;;;;;;;;;;;;;;;5049642;28;19908;-48
2022/05/15 06:59:55;;;;;;;;;;;;;;;;;;5049285;28;20283;-50
2022/05/15 07:02:22;;;;;;;;;;;;;;;;;;5047429;28;19947;-54
2022/05/15 07:04:48;;;;;;;;;;;;;;;;;;5046999;28;19916;-55
2022/05/15 07:07:15;;;;;;;;;;;;;;;;;;5049940;28;19968;-44
2022/05/15 07:09:41;;;;;;;;;;;;;;;;;;5049839;28;19917;-50
2022/05/15 07:12:08;;;;;;;;;;;;;;;;;;5048976;28;19908;-51
2022/05/15 07:14:34;;;;;;;;;;;;;;;;;;5049485;28;19912;-54
2022/05/15 07:17:01;;;;;;;;;;;;;;;;;;5049931;28;20318;-51
2022/05/15 07:19:27;;;;;;;;;;;;;;;;;;5050026;28;19936;-51
2022/05/15 07:21:54;;;;;;;;;;;;;;;;;;5050103;28;20279;-52
2022/05/15 07:24:22;;;;;;;;;;;;;;;;;;5047400;28;20004;-52
2022/05/15 07:26:48;;;;;;;;;;;;;;;;;;5049542;28;19909;-54
2022/05/15 07:29:15;;;;;;;;;;;;;;;;;;5049951;28;19913;-50
2022/05/15 07:31:41;;;;;;;;;;;;;;;;;;5049762;28;20004;-51
2022/05/15 07:34:08;;;;;;;;;;;;;;;;;;5046791;28;19912;-50
2022/05/15 07:36:34;;;;;;;;;;;;;;;;;;5049737;28;19948;-52
2022/05/15 07:39:01;;;;;;;;;;;;;;;;;;5049815;28;19915;-52
2022/05/15 07:41:27;;;;;;;;;;;;;;;;;;5049942;28;19952;-44
2022/05/15 07:43:54;;;;;;;;;;;;;;;;;;5047019;28;20383;-50
2022/05/15 07:46:21;;;;;;;;;;;;;;;;;;5049638;28;20257;-46
2022/05/15 07:48:47;;;;;;;;;;;;;;;;;;5049565;28;19917;-54
2022/05/15 07:51:14;;;;;;;;;;;;;;;;;;5049501;28;19909;-43
2022/05/15 07:53:40;;;;;;;;;;;;;;;;;;5046543;28;20310;-55
2022/05/15 07:56:09;;;;;;;;;;;;;;;;;;5049367;28;19908;-43
2022/05/15 07:58:36;;;;;;;;;;;;;;;;;;5049403;28;19909;-47
2022/05/15 08:01:04;;;;;;;;;;;;;;;;;;5048752;28;19909;-50
2022/05/15 08:03:33;;;;;;;;;;;;;;;;;;5046893;28;19925;-48
2022/05/15 08:08:44;;;;;;;;;;;;;;;;;;5049079;28;19943;-44
2022/05/15 08:11:11;;;;;;;;;;;;;;;;;;5049512;28;19956;-51
2022/05/15 08:13:37;;;;;;;;;;;;;;;;;;5046940;28;19913;-54
2022/05/15 08:16:04;;;;;;;;;;;;;;;;;;5050518;28;20053;-44
2022/05/15 08:24:00;;;;;;;;;;;;;;;;;;5050320;28;19979;-46
2022/05/15 08:26:26;;;;;;;;;;;;;;;;;;5053630;28;20027;-44
2022/05/15 08:28:53;;;;;;;;;;;;;;;;;;5053370;28;19962;-54
2022/05/15 08:31:19;;;;;;;;;;;;;;;;;;5052905;28;20283;-45
2022/05/15 08:33:46;;;;;;;;;;;;;;;;;;5049969;28;19909;-49
2022/05/15 08:36:12;;;;;;;;;;;;;;;;;;5052570;28;19909;-49
2022/05/15 08:38:39;;;;;;;;;;;;;;;;;;5052611;28;19915;-54
2022/05/15 08:41:05;;;;;;;;;;;;;;;;;;5052962;28;20379;-50
2022/05/15 08:43:32;;;;;;;;;;;;;;;;;;5050430;28;19990;-49
2022/05/15 08:45:58;;;;;;;;;;;;;;;;;;5052942;28;19909;-50
2022/05/15 08:48:25;;;;;;;;;;;;;;;;;;5051976;28;19909;-52
2022/05/15 08:50:52;;;;;;;;;;;;;;;;;;5052583;28;19915;-46
2022/05/15 08:53:19;;;;;;;;;;;;;;;;;;5049790;28;19991;-43
2022/05/15 08:55:47;;;;;;;;;;;;;;;;;;5052193;28;19917;-44
2022/05/15 08:58:14;;;;;;;;;;;;;;;;;;5052387;28;20390;-49
2022/05/15 09:00:41;;;;;;;;;;;;;;;;;;5052378;28;20294;-50
2022/05/15 09:03:08;;;;;;;;;;;;;;;;;;5047513;28;19917;-54
2022/05/15 09:05:34;;;;;;;;;;;;;;;;;;5051889;28;19920;-54
2022/05/15 09:08:01;;;;;;;;;;;;;;;;;;5052257;28;19975;-53
2022/05/15 09:10:27;;;;;;;;;;;;;;;;;;5052868;28;20007;-54
2022/05/15 09:12:54;;;;;;;;;;;;;;;;;;5050282;28;20022;-49
2022/05/15 09:15:20;;;;;;;;;;;;;;;;;;5051794;28;19909;-49
2022/05/15 09:17:46;;;;;;;;;;;;;;;;;;5052258;28;20366;-51
2022/05/15 09:20:13;;;;;;;;;;;;;;;;;;5051899;28;20244;-54
2022/05/15 09:22:39;;;;;;;;;;;;;;;;;;5049065;28;19956;-55
2022/05/15 09:25:06;;;;;;;;;;;;;;;;;;5052678;28;19921;-54
2022/05/15 09:27:32;;;;;;;;;;;;;;;;;;5051483;28;19909;-54
2022/05/15 09:29:59;;;;;;;;;;;;;;;;;;5052055;28;19916;-45
2022/05/15 09:32:26;;;;;;;;;;;;;;;;;;5049161;28;19917;-49
2022/05/15 09:34:52;;;;;;;;;;;;;;;;;;5050686;28;20295;-49
2022/05/15 09:40:03;;;;;;;;;;;;;;;;;;5051495;28;19998;-52
2022/05/15 09:45:14;;;;;;;;;;;;;;;;;;5050360;28;20050;-44
2022/05/15 09:47:43;;;;;;;;;;;;;;;;;;5051753;28;19921;-49
2022/05/15 09:50:09;;;;;;;;;;;;;;;;;;5051779;28;20011;-55
2022/05/15 09:52:36;;;;;;;;;;;;;;;;;;5047333;28;21490;-51
2022/05/15 09:55:02;;;;;;;;;;;;;;;;;;5051573;28;19932;-49
2022/05/15 09:57:29;;;;;;;;;;;;;;;;;;5052289;28;19915;-54
2022/05/15 09:59:55;;;;;;;;;;;;;;;;;;5051751;28;19935;-49
2022/05/15 10:02:22;;;;;;;;;;;;;;;;;;5048903;28;21097;-47
2022/05/15 10:04:49;;;;;;;;;;;;;;;;;;5051578;28;19913;-48
2022/05/15 10:07:18;;;;;;;;;;;;;;;;;;5051636;28;20367;-43
2022/05/15 10:09:45;;;;;;;;;;;;;;;;;;5050668;28;20012;-52
2022/05/15 10:12:11;;;;;;;;;;;;;;;;;;5053426;28;20009;-51
2022/05/15 10:14:37;;;;;;;;;;;;;;;;;;5054122;28;20003;-43
2022/05/15 10:17:04;;;;;;;;;;;;;;;;;;5053315;28;20038;-47
2022/05/15 10:19:32;;;;;;;;;;;;;;;;;;5054140;28;19909;-48
2022/05/15 10:21:59;;;;;;;;;;;;;;;;;;5053688;28;20270;-48
2022/05/15 10:24:25;;;;;;;;;;;;;;;;;;5054235;28;19954;-53
2022/05/15 10:26:52;;;;;;;;;;;;;;;;;;5053187;28;19909;-45
2022/05/15 10:29:19;;;;;;;;;;;;;;;;;;5054220;28;20370;-53
2022/05/15 10:31:46;;;;;;;;;;;;;;;;;;5053723;28;19909;-43
2022/05/15 10:34:13;;;;;;;;;;;;;;;;;;5053738;28;19913;-52
2022/05/15 10:36:39;;;;;;;;;;;;;;;;;;5054211;28;19909;-51
2022/05/15 10:39:06;;;;;;;;;;;;;;;;;;5053086;28;19909;-51
2022/05/15 10:41:32;;;;;;;;;;;;;;;;;;5053520;28;19908;-47
2022/05/15 10:43:59;;;;;;;;;;;;;;;;;;5052986;28;19986;-40
2022/05/15 10:46:25;;;;;;;;;;;;;;;;;;5053897;28;19909;-49
2022/05/15 10:48:52;;;;;;;;;;;;;;;;;;5053337;28;19913;-49
2022/05/15 10:51:18;;;;;;;;;;;;;;;;;;5053344;28;19987;-56
2022/05/15 10:59:14;;;;;;;;;;;;;;;;;;5052762;28;19962;-55
2022/05/15 11:01:41;;;;;;;;;;;;;;;;;;5053402;28;19915;-56
2022/05/15 11:04:07;;;;;;;;;;;;;;;;;;5052567;28;19921;-56
2022/05/15 11:06:34;;;;;;;;;;;;;;;;;;5052878;28;20003;-51
2022/05/15 11:09:00;;;;;;;;;;;;;;;;;;5053215;28;20241;-56
2022/05/15 11:11:27;;;;;;;;;;;;;;;;;;5053057;28;19909;-49
2022/05/15 11:13:53;;;;;;;;;;;;;;;;;;5053081;28;19951;-53
2022/05/15 11:16:20;;;;;;;;;;;;;;;;;;5053016;28;19909;-51
2022/05/15 11:18:46;;;;;;;;;;;;;;;;;;5053375;28;20332;-50
2022/05/15 11:21:12;;;;;;;;;;;;;;;;;;5053102;28;20355;-57
2022/05/15 11:23:40;;;;;;;;;;;;;;;;;;5052904;28;20020;-52
2022/05/15 11:26:07;;;;;;;;;;;;;;;;;;5053245;28;19945;-56
2022/05/15 11:28:33;;;;;;;;;;;;;;;;;;5052610;28;20314;-55
2022/05/15 11:30:59;;;;;;;;;;;;;;;;;;5053126;28;19971;-49
2022/05/15 11:33:26;;;;;;;;;;;;;;;;;;5053347;28;19912;-55
2022/05/15 11:35:52;;;;;;;;;;;;;;;;;;5052779;28;20359;-43
2022/05/15 11:38:19;;;;;;;;;;;;;;;;;;5053344;28;20371;-53
2022/05/15 11:40:46;;;;;;;;;;;;;;;;;;5053020;28;19983;-46
2022/05/15 11:43:12;;;;;;;;;;;;;;;;;;5053205;28;20318;-52
2022/05/15 11:45:39;;;;;;;;;;;;;;;;;;5049341;28;19913;-51
2022/05/15 11:48:05;;;;;;;;;;;;;;;;;;5050448;28;19909;-57
2022/05/15 11:50:32;;;;;;;;;;;;;;;;;;5051268;28;20019;-51
2022/05/15 11:52:58;;;;;;;;;;;;;;;;;;5056559;28;19908;-52
2022/05/15 11:55:25;;;;;;;;;;;;;;;;;;5053823;28;20417;-57
2022/05/15 11:57:51;;;;;;;;;;;;;;;;;;5054441;28;19913;-51
2022/05/15 12:00:18;;;;;;;;;;;;;;;;;;5051346;28;19963;-50
2022/05/15 12:02:44;;;;;;;;;;;;;;;;;;5053379;28;19912;-45
2022/05/15 12:05:11;;;;;;;;;;;;;;;;;;5054238;28;20020;-55
2022/05/15 12:07:37;;;;;;;;;;;;;;;;;;5053733;28;19928;-55
2022/05/15 12:10:04;;;;;;;;;;;;;;;;;;5049607;28;19912;-48
2022/05/15 12:12:31;;;;;;;;;;;;;;;;;;5051486;28;19909;-57
2022/05/15 12:14:57;;;;;;;;;;;;;;;;;;5052187;28;19912;-45
2022/05/15 12:17:24;;;;;;;;;;;;;;;;;;5051902;28;20551;-47
2022/05/15 12:19:51;;;;;;;;;;;;;;;;;;5049052;28;19909;-50
2022/05/15 12:22:17;;;;;;;;;;;;;;;;;;5051182;28;20057;-45
2022/05/15 12:24:44;;;;;;;;;;;;;;;;;;5052693;28;19913;-47
2022/05/15 12:27:10;;;;;;;;;;;;;;;;;;5053884;28;20015;-52
2022/05/15 12:29:37;;;;;;;;;;;;;;;;;;5050272;28;20371;-54
2022/05/15 12:32:03;;;;;;;;;;;;;;;;;;5051495;28;19917;-47
2022/05/15 12:34:31;;;;;;;;;;;;;;;;;;5053519;28;20085;-53
2022/05/15 12:36:57;;;;;;;;;;;;;;;;;;5053213;28;20050;-48
2022/05/15 12:39:24;;;;;;;;;;;;;;;;;;5050387;28;20391;-49
2022/05/15 12:41:50;;;;;;;;;;;;;;;;;;5053391;28;19916;-48
2022/05/15 12:44:16;;;;;;;;;;;;;;;;;;5053128;28;21294;-42
2022/05/15 12:46:43;;;;;;;;;;;;;;;;;;5053008;28;20390;-46
2022/05/15 12:49:09;;;;;;;;;;;;;;;;;;5048687;28;20824;-47
2022/05/15 12:51:36;;;;;;;;;;;;;;;;;;5053263;28;19913;-44
2022/05/15 12:54:02;;;;;;;;;;;;;;;;;;5052726;28;19908;-46
2022/05/15 12:56:30;;;;;;;;;;;;;;;;;;5052607;28;19916;-56
2022/05/15 12:58:57;;;;;;;;;;;;;;;;;;5050296;28;19917;-47
2022/05/15 13:01:23;;;;;;;;;;;;;;;;;;5053941;28;19909;-47
2022/05/15 13:03:49;;;;;;;;;;;;;;;;;;5055149;28;19921;-44
2022/05/15 13:06:16;;;;;;;;;;;;;;;;;;5054786;28;19963;-55
2022/05/15 13:08:43;;;;;;;;;;;;;;;;;;5055216;28;19912;-47
2022/05/15 13:11:09;;;;;;;;;;;;;;;;;;5054651;28;19954;-57
2022/05/15 13:13:35;;;;;;;;;;;;;;;;;;5055108;28;19908;-44
2022/05/15 13:16:03;;;;;;;;;;;;;;;;;;5054958;28;19916;-46
2022/05/15 13:18:29;;;;;;;;;;;;;;;;;;5055230;28;19908;-47
2022/05/15 13:20:56;;;;;;;;;;;;;;;;;;5055340;28;19916;-47
2022/05/15 13:23:22;;;;;;;;;;;;;;;;;;5055085;28;20386;-53
2022/05/15 13:25:49;;;;;;;;;;;;;;;;;;5054983;28;20371;-43
2022/05/15 13:28:15;;;;;;;;;;;;;;;;;;5054228;28;19913;-54
2022/05/15 13:30:42;;;;;;;;;;;;;;;;;;5054635;28;19931;-49
2022/05/15 13:33:08;;;;;;;;;;;;;;;;;;5054752;28;19909;-55
2022/05/15 13:35:35;;;;;;;;;;;;;;;;;;5054945;28;20425;-55
2022/05/15 13:38:01;;;;;;;;;;;;;;;;;;5055023;28;19909;-51
2022/05/15 13:43:18;;;;;;;;;;;;;;;;;;5054846;28;20378;-58
2022/05/15 13:45:45;;;;;;;;;;;;;;;;;;5054853;28;20251;-56
2022/05/15 13:48:11;;;;;;;;;;;;;;;;;;5054586;28;20347;-54
2022/05/15 13:50:38;;;;;;;;;;;;;;;;;;5054815;28;19974;-57
2022/05/15 13:53:04;;;;;;;;;;;;;;;;;;5054738;28;20421;-44
2022/05/15 13:55:30;;;;;;;;;;;;;;;;;;5054566;28;20302;-50
2022/05/15 13:58:00;;;;;;;;;;;;;;;;;;5054373;28;19973;-50
2022/05/15 14:00:26;;;;;;;;;;;;;;;;;;5054398;28;19952;-55
2022/05/15 14:02:54;;;;;;;;;;;;;;;;;;5054329;28;19916;-52
2022/05/15 14:05:20;;;;;;;;;;;;;;;;;;5054261;28;19912;-56
2022/05/15 14:07:46;;;;;;;;;;;;;;;;;;5054088;28;19928;-56
2022/05/15 14:10:13;;;;;;;;;;;;;;;;;;5054040;28;19908;-57
2022/05/15 14:12:39;;;;;;;;;;;;;;;;;;5053918;28;19909;-54
2022/05/15 14:15:07;;;;;;;;;;;;;;;;;;5054125;28;20275;-52
2022/05/15 14:17:33;;;;;;;;;;;;;;;;;;5054131;28;19909;-54
2022/05/15 14:20:00;;;;;;;;;;;;;;;;;;5053913;28;20359;-55
2022/05/15 14:22:26;;;;;;;;;;;;;;;;;;5054314;28;19917;-55
2022/05/15 14:24:54;;;;;;;;;;;;;;;;;;5054025;28;19917;-52
2022/05/15 14:27:20;;;;;;;;;;;;;;;;;;5054250;28;19954;-48
2022/05/15 14:29:47;;;;;;;;;;;;;;;;;;5054159;28;19983;-49
2022/05/15 14:32:13;;;;;;;;;;;;;;;;;;5053518;28;20762;-50
2022/05/15 14:34:40;;;;;;;;;;;;;;;;;;5054098;28;20279;-54
2022/05/15 14:37:06;;;;;;;;;;;;;;;;;;5053847;28;19904;-57
2022/05/15 14:39:33;;;;;;;;;;;;;;;;;;5054161;28;19919;-55
2022/05/15 14:41:59;;;;;;;;;;;;;;;;;;5053527;28;19904;-51
2022/05/15 14:44:26;;;;;;;;;;;;;;;;;;5053448;28;19917;-57
2022/05/15 14:46:55;;;;;;;;;;;;;;;;;;5053392;28;19909;-54
2022/05/15 14:49:21;;;;;;;;;;;;;;;;;;5053615;28;19999;-58
2022/05/15 14:51:48;;;;;;;;;;;;;;;;;;5053451;28;19978;-56
2022/05/15 14:54:16;;;;;;;;;;;;;;;;;;5053278;28;19936;-55
2022/05/15 14:56:42;;;;;;;;;;;;;;;;;;5053683;28;19916;-57
2022/05/15 14:59:11;;;;;;;;;;;;;;;;;;5053523;28;19923;-53
2022/05/15 15:01:39;;;;;;;;;;;;;;;;;;5053318;28;19951;-53
2022/05/15 15:04:05;;;;;;;;;;;;;;;;;;5052826;28;19983;-57
2022/05/15 15:06:32;;;;;;;;;;;;;;;;;;5053223;28;19913;-58
2022/05/15 15:08:58;;;;;;;;;;;;;;;;;;5053168;28;19909;-55
2022/05/15 15:11:25;;;;;;;;;;;;;;;;;;5053342;28;19963;-53
2022/05/15 15:13:51;;;;;;;;;;;;;;;;;;5053050;28;19912;-56
2022/05/15 15:16:17;;;;;;;;;;;;;;;;;;5052811;28;19913;-58
2022/05/15 15:18:44;;;;;;;;;;;;;;;;;;5053513;28;19988;-56
2022/05/15 15:21:10;;;;;;;;;;;;;;;;;;5053447;28;19909;-57
2022/05/15 15:23:39;;;;;;;;;;;;;;;;;;5053074;28;19927;-58
2022/05/15 15:26:05;;;;;;;;;;;;;;;;;;5052403;28;20335;-60
2022/05/15 15:28:32;;;;;;;;;;;;;;;;;;5053249;28;20310;-54
2022/05/15 15:30:58;;;;;;;;;;;;;;;;;;5053084;28;19944;-59
2022/05/15 15:33:24;;;;;;;;;;;;;;;;;;5052940;28;19939;-59
2022/05/15 15:35:51;;;;;;;;;;;;;;;;;;5052917;28;19908;-58
2022/05/15 15:38:23;;;;;;;;;;;;;;;;;;5052842;28;19909;-58
2022/05/15 15:40:49;;;;;;;;;;;;;;;;;;5052918;28;19944;-43
2022/05/15 15:43:16;;;;;;;;;;;;;;;;;;5052940;28;19917;-58
2022/05/15 15:45:42;;;;;;;;;;;;;;;;;;5052599;28;19916;-57
2022/05/15 15:48:11;;;;;;;;;;;;;;;;;;5052899;28;19908;-60
2022/05/15 15:50:38;;;;;;;;;;;;;;;;;;5052849;28;20351;-54
2022/05/15 15:53:04;;;;;;;;;;;;;;;;;;5052685;28;20355;-57
2022/05/15 15:55:31;;;;;;;;;;;;;;;;;;5052787;28;20270;-47
2022/05/15 15:57:58;;;;;;;;;;;;;;;;;;5052542;28;19936;-59
2022/05/15 16:00:24;;;;;;;;;;;;;;;;;;5060123;28;19916;-58
2022/05/15 16:02:50;;;;;;;;;;;;;;;;;;5072592;28;20011;-54
2022/05/15 16:05:21;;;;;;;;;;;;;;;;;;5072733;28;19912;-56
2022/05/15 16:07:47;;;;;;;;;;;;;;;;;;5072492;28;19977;-52
2022/05/15 16:10:14;;;;;;;;;;;;;;;;;;5072530;28;19919;-53
2022/05/15 16:12:41;;;;;;;;;;;;;;;;;;5072607;28;20309;-56
2022/05/15 16:15:08;;;;;;;;;;;;;;;;;;5072460;28;20371;-55
2022/05/15 16:17:35;;;;;;;;;;;;;;;;;;5072601;28;19908;-54
2022/05/15 16:20:01;;;;;;;;;;;;;;;;;;5072533;28;19909;-55
2022/05/15 16:22:28;;;;;;;;;;;;;;;;;;5072478;28;20367;-55
2022/05/15 16:24:55;;;;;;;;;;;;;;;;;;5072729;28;20287;-50
2022/05/15 16:27:22;;;;;;;;;;;;;;;;;;5072481;28;19908;-57
2022/05/15 16:29:49;;;;;;;;;;;;;;;;;;5072273;28;20421;-53
2022/05/15 16:32:15;;;;;;;;;;;;;;;;;;5072332;28;19909;-58
2022/05/15 16:34:42;;;;;;;;;;;;;;;;;;5072362;28;20355;-51
2022/05/15 16:37:10;;;;;;;;;;;;;;;;;;5075388;28;19954;-52
2022/05/15 16:39:37;;;;;;;;;;;;;;;;;;5075953;28;19908;-56
2022/05/15 16:42:03;;;;;;;;;;;;;;;;;;5075611;28;19932;-53
2022/05/15 16:44:30;;;;;;;;;;;;;;;;;;5075665;28;19969;-58
2022/05/15 16:46:56;;;;;;;;;;;;;;;;;;5075884;28;19955;-52
2022/05/15 16:49:22;;;;;;;;;;;;;;;;;;5075935;28;19915;-46
2022/05/15 16:51:49;;;;;;;;;;;;;;;;;;5075743;28;19908;-53
2022/05/15 16:54:15;;;;;;;;;;;;;;;;;;5075611;28;19912;-57
2022/05/15 16:56:42;;;;;;;;;;;;;;;;;;5075668;28;19999;-56
2022/05/15 16:59:09;;;;;;;;;;;;;;;;;;5075821;28;19909;-54
2022/05/15 17:01:36;;;;;;;;;;;;;;;;;;5075443;28;19915;-55
2022/05/15 17:04:02;;;;;;;;;;;;;;;;;;5075345;28;19916;-56
2022/05/15 17:06:29;;;;;;;;;;;;;;;;;;5075438;28;19947;-54
2022/05/15 17:08:55;;;;;;;;;;;;;;;;;;5075618;28;19984;-53